SGAS/ASU METAR and TAF weather

Enter ICAO airport designator
Station Type Date Time Source
SGAS METAR 2021/09/23 17:00 UTC NOAA

SGAS 231700Z 22008KT CAVOK 26/16 Q1018


Station Type Date Time Source
SGAS Decoded METAR 2021/09/23 17:00 UTC NOAA

Asuncion / Aeropuerto, Paraguay (SGAS) 25-16S 057-38W 101M
Sep 23, 2021 - 01:00 PM EDT / 2021.09.23 1700 UTC
Wind: from the SW (220 degrees) at 9 MPH (8 KT):0
Visibility: greater than 7 mile(s):0
Temperature: 78 F (26 C)
Dew Point: 60 F (16 C)
Relative Humidity: 54%
Pressure (altimeter): 30.06 in. Hg (1018 hPa)
ob: SGAS 231700Z 22008KT CAVOK 26/16 Q1018
cycle: 17

Station Type Date Time Source
SGAS TAF 2021/09/23 18:29 UTC NOAA

TAF SGAS 231710Z 2318/2418 22008KT 9999 BKN030 TX26/2319Z TN16/2410Z
BECMG 2401/2403 16005KT CAVOK

Example: see airport list